Terminal Aerodrome Forecast
Issued by NWS

Home | Current Version | Previous Version | Text Only | Print | Product List | Glossary Off
Versions: 1 2 3 4 5 6 7 8 9 10 11 12 13 14 15 16 17 18 19 20 21

000
FTUS43 KGRB 081100 AAB
TAFATW
TAF AMD
KATW 081118Z 0811/0906 27009KT P6SM SCT015 SCT025 BKN120
      TEMPO 0811/0814 BKN018
     FM081900 30008KT P6SM VCSH SCT020 BKN050
     FM090100 28003KT P6SM SCT050 SCT100=

USA.gov is the U.S. government's official web portal to all federal, state and local government web resources and services.